sensor_id;sensor_type;location;lat;lon;timestamp;P1;durP1;ratioP1;P2;durP2;ratioP2
13345;SDS011;6742;48.036;15.780;2023-07-20T00:00:59;3.28;;;2.90;;
13345;SDS011;6742;48.036;15.780;2023-07-20T00:03:26;5.15;;;3.20;;
13345;SDS011;6742;48.036;15.780;2023-07-20T00:05:53;3.85;;;3.25;;
13345;SDS011;6742;48.036;15.780;2023-07-20T00:08:20;4.45;;;3.38;;
13345;SDS011;6742;48.036;15.780;2023-07-20T00:10:46;3.47;;;3.17;;
13345;SDS011;6742;48.036;15.780;2023-07-20T00:13:14;4.80;;;3.60;;
13345;SDS011;6742;48.036;15.780;2023-07-20T00:15:45;3.97;;;3.30;;
13345;SDS011;6742;48.036;15.780;2023-07-20T00:18:12;3.50;;;3.20;;
13345;SDS011;6742;48.036;15.780;2023-07-20T00:20:39;3.60;;;3.30;;
13345;SDS011;6742;48.036;15.780;2023-07-20T00:23:06;3.85;;;3.22;;
13345;SDS011;6742;48.036;15.780;2023-07-20T00:25:34;4.68;;;3.00;;
13345;SDS011;6742;48.036;15.780;2023-07-20T00:28:01;3.67;;;3.08;;
13345;SDS011;6742;48.036;15.780;2023-07-20T00:30:28;3.85;;;3.13;;
13345;SDS011;6742;48.036;15.780;2023-07-20T00:32:56;4.00;;;3.13;;
13345;SDS011;6742;48.036;15.780;2023-07-20T00:35:23;4.45;;;3.10;;
13345;SDS011;6742;48.036;15.780;2023-07-20T00:37:50;3.38;;;2.80;;
13345;SDS011;6742;48.036;15.780;2023-07-20T00:40:17;3.88;;;3.17;;
13345;SDS011;6742;48.036;15.780;2023-07-20T00:42:44;4.25;;;3.58;;
13345;SDS011;6742;48.036;15.780;2023-07-20T00:45:11;3.90;;;3.20;;
13345;SDS011;6742;48.036;15.780;2023-07-20T00:47:38;4.78;;;3.60;;
13345;SDS011;6742;48.036;15.780;2023-07-20T00:50:07;4.97;;;3.40;;
13345;SDS011;6742;48.036;15.780;2023-07-20T00:52:35;3.33;;;3.03;;
13345;SDS011;6742;48.036;15.780;2023-07-20T00:55:05;3.65;;;3.35;;
13345;SDS011;6742;48.036;15.780;2023-07-20T00:57:33;3.40;;;3.10;;
13345;SDS011;6742;48.036;15.780;2023-07-20T01:00:00;4.10;;;3.17;;
13345;SDS011;6742;48.036;15.780;2023-07-20T01:02:27;3.55;;;3.25;;
13345;SDS011;6742;48.036;15.780;2023-07-20T01:04:54;3.65;;;3.30;;
13345;SDS011;6742;48.036;15.780;2023-07-20T01:07:24;3.47;;;3.17;;
13345;SDS011;6742;48.036;15.780;2023-07-20T01:09:58;3.35;;;3.03;;
13345;SDS011;6742;48.036;15.780;2023-07-20T01:12:33;3.10;;;2.80;;
13345;SDS011;6742;48.036;15.780;2023-07-20T01:15:08;3.58;;;3.13;;
13345;SDS011;6742;48.036;15.780;2023-07-20T01:17:35;3.47;;;3.10;;
13345;SDS011;6742;48.036;15.780;2023-07-20T01:20:02;4.72;;;3.47;;
13345;SDS011;6742;48.036;15.780;2023-07-20T01:22:40;5.13;;;3.58;;
13345;SDS011;6742;48.036;15.780;2023-07-20T01:25:22;3.65;;;3.00;;
13345;SDS011;6742;48.036;15.780;2023-07-20T01:30:59;4.15;;;3.17;;
13345;SDS011;6742;48.036;15.780;2023-07-20T01:33:39;3.88;;;3.22;;
13345;SDS011;6742;48.036;15.780;2023-07-20T01:36:08;4.00;;;3.60;;
13345;SDS011;6742;48.036;15.780;2023-07-20T01:38:36;4.18;;;3.30;;
13345;SDS011;6742;48.036;15.780;2023-07-20T01:41:03;3.40;;;3.10;;
13345;SDS011;6742;48.036;15.780;2023-07-20T01:43:31;4.18;;;3.60;;
13345;SDS011;6742;48.036;15.780;2023-07-20T01:45:58;4.43;;;3.33;;
13345;SDS011;6742;48.036;15.780;2023-07-20T01:48:26;4.00;;;3.50;;
13345;SDS011;6742;48.036;15.780;2023-07-20T01:50:53;4.65;;;3.70;;
13345;SDS011;6742;48.036;15.780;2023-07-20T01:53:20;4.32;;;3.17;;
13345;SDS011;6742;48.036;15.780;2023-07-20T01:55:47;4.40;;;4.00;;
13345;SDS011;6742;48.036;15.780;2023-07-20T01:58:14;4.35;;;3.40;;
13345;SDS011;6742;48.036;15.780;2023-07-20T02:00:41;4.55;;;3.53;;
13345;SDS011;6742;48.036;15.780;2023-07-20T02:03:07;4.38;;;3.83;;
13345;SDS011;6742;48.036;15.780;2023-07-20T02:05:36;3.63;;;3.33;;
13345;SDS011;6742;48.036;15.780;2023-07-20T02:08:03;4.05;;;3.40;;
13345;SDS011;6742;48.036;15.780;2023-07-20T02:10:30;3.85;;;3.17;;
13345;SDS011;6742;48.036;15.780;2023-07-20T02:12:57;4.88;;;3.83;;
13345;SDS011;6742;48.036;15.780;2023-07-20T02:15:24;4.32;;;3.53;;
13345;SDS011;6742;48.036;15.780;2023-07-20T02:17:51;3.78;;;3.30;;
13345;SDS011;6742;48.036;15.780;2023-07-20T02:20:18;4.75;;;3.50;;
13345;SDS011;6742;48.036;15.780;2023-07-20T02:22:47;3.50;;;3.20;;
13345;SDS011;6742;48.036;15.780;2023-07-20T02:25:13;4.90;;;3.70;;
13345;SDS011;6742;48.036;15.780;2023-07-20T02:27:42;4.65;;;3.67;;
13345;SDS011;6742;48.036;15.780;2023-07-20T02:30:09;4.20;;;3.50;;
13345;SDS011;6742;48.036;15.780;2023-07-20T02:32:36;5.07;;;3.88;;
13345;SDS011;6742;48.036;15.780;2023-07-20T02:35:04;3.80;;;3.00;;
13345;SDS011;6742;48.036;15.780;2023-07-20T02:37:32;5.75;;;4.00;;
13345;SDS011;6742;48.036;15.780;2023-07-20T02:40:00;5.93;;;3.88;;
13345;SDS011;6742;48.036;15.780;2023-07-20T02:42:29;4.45;;;3.53;;
13345;SDS011;6742;48.036;15.780;2023-07-20T02:44:56;3.97;;;3.50;;
13345;SDS011;6742;48.036;15.780;2023-07-20T02:47:23;4.70;;;3.38;;
13345;SDS011;6742;48.036;15.780;2023-07-20T02:49:50;4.13;;;3.33;;
13345;SDS011;6742;48.036;15.780;2023-07-20T02:52:17;4.57;;;3.10;;
13345;SDS011;6742;48.036;15.780;2023-07-20T02:54:44;3.20;;;2.90;;
13345;SDS011;6742;48.036;15.780;2023-07-20T02:57:12;4.65;;;3.38;;
13345;SDS011;6742;48.036;15.780;2023-07-20T02:59:39;5.93;;;3.47;;
13345;SDS011;6742;48.036;15.780;2023-07-20T03:02:06;5.30;;;3.15;;
13345;SDS011;6742;48.036;15.780;2023-07-20T03:04:34;3.35;;;3.05;;
13345;SDS011;6742;48.036;15.780;2023-07-20T03:07:02;4.20;;;3.20;;
13345;SDS011;6742;48.036;15.780;2023-07-20T03:09:29;3.25;;;2.95;;
13345;SDS011;6742;48.036;15.780;2023-07-20T03:11:56;6.10;;;3.40;;
13345;SDS011;6742;48.036;15.780;2023-07-20T03:14:24;3.45;;;2.70;;
13345;SDS011;6742;48.036;15.780;2023-07-20T03:16:51;4.90;;;3.40;;
13345;SDS011;6742;48.036;15.780;2023-07-20T03:19:18;3.42;;;2.95;;
13345;SDS011;6742;48.036;15.780;2023-07-20T03:21:45;3.70;;;3.15;;
13345;SDS011;6742;48.036;15.780;2023-07-20T03:24:12;3.72;;;3.17;;
13345;SDS011;6742;48.036;15.780;2023-07-20T03:26:39;6.13;;;3.30;;
13345;SDS011;6742;48.036;15.780;2023-07-20T03:29:06;3.53;;;2.85;;
13345;SDS011;6742;48.036;15.780;2023-07-20T03:31:34;3.15;;;2.85;;
13345;SDS011;6742;48.036;15.780;2023-07-20T03:34:01;5.68;;;3.13;;
13345;SDS011;6742;48.036;15.780;2023-07-20T03:36:28;4.63;;;3.13;;
13345;SDS011;6742;48.036;15.780;2023-07-20T03:38:56;3.63;;;3.30;;
13345;SDS011;6742;48.036;15.780;2023-07-20T03:41:23;4.82;;;3.45;;
13345;SDS011;6742;48.036;15.780;2023-07-20T03:43:50;3.22;;;2.90;;
13345;SDS011;6742;48.036;15.780;2023-07-20T03:46:17;4.05;;;3.00;;
13345;SDS011;6742;48.036;15.780;2023-07-20T03:48:46;3.85;;;3.35;;
13345;SDS011;6742;48.036;15.780;2023-07-20T03:51:13;4.00;;;2.97;;
13345;SDS011;6742;48.036;15.780;2023-07-20T03:53:39;3.97;;;3.30;;
13345;SDS011;6742;48.036;15.780;2023-07-20T03:56:07;4.85;;;3.33;;
13345;SDS011;6742;48.036;15.780;2023-07-20T03:58:34;3.90;;;2.78;;
13345;SDS011;6742;48.036;15.780;2023-07-20T04:01:02;4.68;;;3.42;;
13345;SDS011;6742;48.036;15.780;2023-07-20T04:03:29;6.88;;;3.20;;
13345;SDS011;6742;48.036;15.780;2023-07-20T04:05:57;5.15;;;3.20;;
13345;SDS011;6742;48.036;15.780;2023-07-20T04:08:24;6.75;;;3.30;;
13345;SDS011;6742;48.036;15.780;2023-07-20T04:10:51;4.57;;;3.47;;
13345;SDS011;6742;48.036;15.780;2023-07-20T04:13:18;9.00;;;3.95;;
13345;SDS011;6742;48.036;15.780;2023-07-20T04:15:45;6.63;;;3.55;;
13345;SDS011;6742;48.036;15.780;2023-07-20T04:18:12;6.85;;;3.65;;
13345;SDS011;6742;48.036;15.780;2023-07-20T04:20:39;4.68;;;3.40;;
13345;SDS011;6742;48.036;15.780;2023-07-20T04:23:08;4.63;;;3.38;;
13345;SDS011;6742;48.036;15.780;2023-07-20T04:25:35;5.25;;;3.13;;
13345;SDS011;6742;48.036;15.780;2023-07-20T04:28:05;4.20;;;3.13;;
13345;SDS011;6742;48.036;15.780;2023-07-20T04:30:34;3.50;;;3.00;;
13345;SDS011;6742;48.036;15.780;2023-07-20T04:33:02;3.70;;;3.40;;
13345;SDS011;6742;48.036;15.780;2023-07-20T04:38:13;3.97;;;3.03;;
13345;SDS011;6742;48.036;15.780;2023-07-20T04:40:42;4.13;;;3.35;;
13345;SDS011;6742;48.036;15.780;2023-07-20T04:43:10;3.10;;;2.78;;
13345;SDS011;6742;48.036;15.780;2023-07-20T04:45:37;4.13;;;3.10;;
13345;SDS011;6742;48.036;15.780;2023-07-20T04:48:05;3.28;;;2.80;;
13345;SDS011;6742;48.036;15.780;2023-07-20T04:50:34;3.45;;;3.15;;
13345;SDS011;6742;48.036;15.780;2023-07-20T04:53:01;3.15;;;2.80;;
13345;SDS011;6742;48.036;15.780;2023-07-20T04:55:30;5.32;;;2.85;;
13345;SDS011;6742;48.036;15.780;2023-07-20T04:57:58;4.93;;;3.13;;
13345;SDS011;6742;48.036;15.780;2023-07-20T05:00:25;4.15;;;3.20;;
13345;SDS011;6742;48.036;15.780;2023-07-20T05:02:52;3.50;;;3.05;;
13345;SDS011;6742;48.036;15.780;2023-07-20T05:05:19;3.05;;;2.75;;
13345;SDS011;6742;48.036;15.780;2023-07-20T05:07:47;3.72;;;2.90;;
13345;SDS011;6742;48.036;15.780;2023-07-20T05:10:14;4.45;;;2.97;;
13345;SDS011;6742;48.036;15.780;2023-07-20T05:12:42;4.57;;;2.88;;
13345;SDS011;6742;48.036;15.780;2023-07-20T05:15:09;3.15;;;2.55;;
13345;SDS011;6742;48.036;15.780;2023-07-20T05:17:36;3.20;;;2.90;;
13345;SDS011;6742;48.036;15.780;2023-07-20T05:20:04;3.15;;;2.75;;
13345;SDS011;6742;48.036;15.780;2023-07-20T05:22:35;6.07;;;2.90;;
13345;SDS011;6742;48.036;15.780;2023-07-20T05:25:05;3.63;;;2.55;;
13345;SDS011;6742;48.036;15.780;2023-07-20T05:27:33;3.90;;;2.88;;
13345;SDS011;6742;48.036;15.780;2023-07-20T05:30:02;4.88;;;2.92;;
13345;SDS011;6742;48.036;15.780;2023-07-20T05:32:29;4.50;;;2.58;;
13345;SDS011;6742;48.036;15.780;2023-07-20T05:34:56;4.63;;;3.30;;
13345;SDS011;6742;48.036;15.780;2023-07-20T05:37:24;4.30;;;2.90;;
13345;SDS011;6742;48.036;15.780;2023-07-20T05:39:51;4.03;;;2.80;;
13345;SDS011;6742;48.036;15.780;2023-07-20T05:42:18;3.80;;;3.20;;
13345;SDS011;6742;48.036;15.780;2023-07-20T05:44:45;7.20;;;3.40;;
13345;SDS011;6742;48.036;15.780;2023-07-20T05:47:14;4.72;;;3.10;;
13345;SDS011;6742;48.036;15.780;2023-07-20T05:49:41;6.03;;;3.08;;
13345;SDS011;6742;48.036;15.780;2023-07-20T05:52:08;4.97;;;2.97;;
13345;SDS011;6742;48.036;15.780;2023-07-20T05:54:35;3.83;;;3.20;;
13345;SDS011;6742;48.036;15.780;2023-07-20T05:57:03;5.32;;;3.30;;
13345;SDS011;6742;48.036;15.780;2023-07-20T05:59:30;3.83;;;3.03;;
13345;SDS011;6742;48.036;15.780;2023-07-20T06:01:57;4.20;;;3.05;;
13345;SDS011;6742;48.036;15.780;2023-07-20T06:04:26;2.90;;;2.60;;
13345;SDS011;6742;48.036;15.780;2023-07-20T06:06:53;5.80;;;3.10;;
13345;SDS011;6742;48.036;15.780;2023-07-20T06:09:20;4.88;;;2.95;;
13345;SDS011;6742;48.036;15.780;2023-07-20T06:11:47;4.40;;;2.80;;
13345;SDS011;6742;48.036;15.780;2023-07-20T06:14:14;3.88;;;3.10;;
13345;SDS011;6742;48.036;15.780;2023-07-20T06:16:41;4.53;;;3.08;;
13345;SDS011;6742;48.036;15.780;2023-07-20T06:19:08;2.85;;;2.53;;
13345;SDS011;6742;48.036;15.780;2023-07-20T06:21:37;3.40;;;2.40;;
13345;SDS011;6742;48.036;15.780;2023-07-20T06:24:04;4.47;;;2.60;;
13345;SDS011;6742;48.036;15.780;2023-07-20T06:26:32;3.80;;;2.67;;
13345;SDS011;6742;48.036;15.780;2023-07-20T06:29:03;3.47;;;2.50;;
13345;SDS011;6742;48.036;15.780;2023-07-20T06:31:31;5.40;;;3.00;;
13345;SDS011;6742;48.036;15.780;2023-07-20T06:33:58;5.22;;;2.70;;
13345;SDS011;6742;48.036;15.780;2023-07-20T06:36:26;3.28;;;2.75;;
13345;SDS011;6742;48.036;15.780;2023-07-20T06:38:54;2.80;;;2.38;;
13345;SDS011;6742;48.036;15.780;2023-07-20T06:41:21;3.03;;;2.70;;
13345;SDS011;6742;48.036;15.780;2023-07-20T06:43:48;4.97;;;3.08;;
13345;SDS011;6742;48.036;15.780;2023-07-20T06:46:17;4.28;;;3.00;;
13345;SDS011;6742;48.036;15.780;2023-07-20T06:48:44;4.28;;;2.65;;
13345;SDS011;6742;48.036;15.780;2023-07-20T06:51:11;3.95;;;2.70;;
13345;SDS011;6742;48.036;15.780;2023-07-20T06:53:38;3.25;;;2.70;;
13345;SDS011;6742;48.036;15.780;2023-07-20T06:56:06;3.13;;;2.70;;
13345;SDS011;6742;48.036;15.780;2023-07-20T06:58:33;2.88;;;2.58;;
13345;SDS011;6742;48.036;15.780;2023-07-20T07:01:04;4.18;;;2.58;;
13345;SDS011;6742;48.036;15.780;2023-07-20T07:03:31;3.97;;;2.65;;
13345;SDS011;6742;48.036;15.780;2023-07-20T07:05:59;6.53;;;2.92;;
13345;SDS011;6742;48.036;15.780;2023-07-20T07:08:26;4.40;;;2.90;;
13345;SDS011;6742;48.036;15.780;2023-07-20T07:10:53;5.32;;;3.00;;
13345;SDS011;6742;48.036;15.780;2023-07-20T07:13:21;3.42;;;2.80;;
13345;SDS011;6742;48.036;15.780;2023-07-20T07:15:48;3.03;;;2.70;;
13345;SDS011;6742;48.036;15.780;2023-07-20T07:18:15;4.78;;;2.70;;
13345;SDS011;6742;48.036;15.780;2023-07-20T07:20:49;4.10;;;2.80;;
13345;SDS011;6742;48.036;15.780;2023-07-20T07:23:17;4.30;;;2.70;;
13345;SDS011;6742;48.036;15.780;2023-07-20T07:25:45;4.82;;;2.97;;
13345;SDS011;6742;48.036;15.780;2023-07-20T07:28:12;3.80;;;2.70;;
13345;SDS011;6742;48.036;15.780;2023-07-20T07:30:40;4.70;;;2.60;;
13345;SDS011;6742;48.036;15.780;2023-07-20T07:33:07;4.95;;;2.63;;
13345;SDS011;6742;48.036;15.780;2023-07-20T07:35:34;4.05;;;2.97;;
13345;SDS011;6742;48.036;15.780;2023-07-20T07:38:02;4.35;;;3.03;;
13345;SDS011;6742;48.036;15.780;2023-07-20T07:40:29;5.22;;;3.00;;
13345;SDS011;6742;48.036;15.780;2023-07-20T07:42:56;4.57;;;3.15;;
13345;SDS011;6742;48.036;15.780;2023-07-20T07:45:23;3.88;;;2.55;;
13345;SDS011;6742;48.036;15.780;2023-07-20T07:47:54;4.18;;;2.60;;
13345;SDS011;6742;48.036;15.780;2023-07-20T07:50:21;4.45;;;2.53;;
13345;SDS011;6742;48.036;15.780;2023-07-20T07:52:48;3.97;;;2.67;;
13345;SDS011;6742;48.036;15.780;2023-07-20T07:55:15;8.57;;;2.83;;
13345;SDS011;6742;48.036;15.780;2023-07-20T07:57:43;4.38;;;2.45;;
13345;SDS011;6742;48.036;15.780;2023-07-20T08:00:10;3.95;;;2.53;;
13345;SDS011;6742;48.036;15.780;2023-07-20T08:02:40;3.00;;;2.50;;
13345;SDS011;6742;48.036;15.780;2023-07-20T08:05:09;2.80;;;2.60;;
13345;SDS011;6742;48.036;15.780;2023-07-20T08:07:37;4.00;;;2.45;;
13345;SDS011;6742;48.036;15.780;2023-07-20T08:10:04;4.15;;;2.63;;
13345;SDS011;6742;48.036;15.780;2023-07-20T08:12:32;2.58;;;2.35;;
13345;SDS011;6742;48.036;15.780;2023-07-20T08:14:59;3.95;;;2.47;;
13345;SDS011;6742;48.036;15.780;2023-07-20T08:17:26;5.13;;;2.90;;
13345;SDS011;6742;48.036;15.780;2023-07-20T08:19:53;4.25;;;2.38;;
13345;SDS011;6742;48.036;15.780;2023-07-20T08:22:21;4.53;;;2.50;;
13345;SDS011;6742;48.036;15.780;2023-07-20T08:24:48;2.78;;;2.40;;
13345;SDS011;6742;48.036;15.780;2023-07-20T08:27:15;6.20;;;2.63;;
13345;SDS011;6742;48.036;15.780;2023-07-20T08:29:42;4.25;;;2.70;;
13345;SDS011;6742;48.036;15.780;2023-07-20T08:32:09;3.28;;;2.63;;
13345;SDS011;6742;48.036;15.780;2023-07-20T08:34:38;5.65;;;2.92;;
13345;SDS011;6742;48.036;15.780;2023-07-20T08:37:05;4.03;;;2.50;;
13345;SDS011;6742;48.036;15.780;2023-07-20T08:39:36;3.88;;;2.40;;
13345;SDS011;6742;48.036;15.780;2023-07-20T08:42:03;4.07;;;2.10;;
13345;SDS011;6742;48.036;15.780;2023-07-20T08:44:32;4.40;;;2.22;;
13345;SDS011;6742;48.036;15.780;2023-07-20T08:46:59;4.07;;;2.35;;
13345;SDS011;6742;48.036;15.780;2023-07-20T08:49:28;4.53;;;2.33;;
13345;SDS011;6742;48.036;15.780;2023-07-20T08:51:57;3.20;;;2.30;;
13345;SDS011;6742;48.036;15.780;2023-07-20T08:54:25;4.53;;;2.67;;
13345;SDS011;6742;48.036;15.780;2023-07-20T08:56:59;3.25;;;2.60;;
13345;SDS011;6742;48.036;15.780;2023-07-20T08:59:28;4.70;;;2.47;;
13345;SDS011;6742;48.036;15.780;2023-07-20T09:01:57;2.78;;;2.08;;
13345;SDS011;6742;48.036;15.780;2023-07-20T09:04:25;2.78;;;2.28;;
13345;SDS011;6742;48.036;15.780;2023-07-20T09:06:52;3.63;;;1.95;;
13345;SDS011;6742;48.036;15.780;2023-07-20T09:09:19;5.70;;;2.17;;
13345;SDS011;6742;48.036;15.780;2023-07-20T09:11:47;3.70;;;2.50;;
13345;SDS011;6742;48.036;15.780;2023-07-20T09:14:16;2.67;;;2.30;;
13345;SDS011;6742;48.036;15.780;2023-07-20T09:16:46;4.45;;;2.10;;
13345;SDS011;6742;48.036;15.780;2023-07-20T09:19:14;3.60;;;2.10;;
13345;SDS011;6742;48.036;15.780;2023-07-20T09:21:43;1.98;;;1.85;;
13345;SDS011;6742;48.036;15.780;2023-07-20T09:24:12;4.35;;;2.10;;
13345;SDS011;6742;48.036;15.780;2023-07-20T09:26:42;5.95;;;1.83;;
13345;SDS011;6742;48.036;15.780;2023-07-20T09:29:10;3.50;;;2.22;;
13345;SDS011;6742;48.036;15.780;2023-07-20T09:31:39;3.75;;;2.08;;
13345;SDS011;6742;48.036;15.780;2023-07-20T09:34:06;2.83;;;1.90;;
13345;SDS011;6742;48.036;15.780;2023-07-20T09:36:33;3.55;;;1.85;;
13345;SDS011;6742;48.036;15.780;2023-07-20T09:39:02;2.55;;;2.00;;
13345;SDS011;6742;48.036;15.780;2023-07-20T09:41:30;2.05;;;1.70;;
13345;SDS011;6742;48.036;15.780;2023-07-20T09:44:06;4.60;;;2.20;;
13345;SDS011;6742;48.036;15.780;2023-07-20T09:46:43;3.85;;;2.08;;
13345;SDS011;6742;48.036;15.780;2023-07-20T09:49:10;2.40;;;2.00;;
13345;SDS011;6742;48.036;15.780;2023-07-20T09:51:38;4.20;;;2.00;;
13345;SDS011;6742;48.036;15.780;2023-07-20T09:54:05;4.70;;;2.08;;
13345;SDS011;6742;48.036;15.780;2023-07-20T09:56:34;2.28;;;1.92;;
13345;SDS011;6742;48.036;15.780;2023-07-20T09:59:01;3.58;;;1.75;;
13345;SDS011;6742;48.036;15.780;2023-07-20T10:01:29;5.05;;;2.38;;
13345;SDS011;6742;48.036;15.780;2023-07-20T10:04:01;3.17;;;2.05;;
13345;SDS011;6742;48.036;15.780;2023-07-20T10:06:31;3.53;;;2.03;;
13345;SDS011;6742;48.036;15.780;2023-07-20T10:09:00;3.35;;;2.28;;
13345;SDS011;6742;48.036;15.780;2023-07-20T10:11:29;3.97;;;2.17;;
13345;SDS011;6742;48.036;15.780;2023-07-20T10:14:01;3.05;;;2.03;;
13345;SDS011;6742;48.036;15.780;2023-07-20T10:16:31;2.70;;;2.05;;
13345;SDS011;6742;48.036;15.780;2023-07-20T10:19:03;2.33;;;2.13;;
13345;SDS011;6742;48.036;15.780;2023-07-20T10:21:33;3.03;;;2.00;;
13345;SDS011;6742;48.036;15.780;2023-07-20T10:24:03;3.03;;;2.00;;
13345;SDS011;6742;48.036;15.780;2023-07-20T10:26:32;4.57;;;2.05;;
13345;SDS011;6742;48.036;15.780;2023-07-20T10:29:00;3.15;;;1.80;;
13345;SDS011;6742;48.036;15.780;2023-07-20T10:31:28;2.47;;;1.75;;
13345;SDS011;6742;48.036;15.780;2023-07-20T10:33:56;1.70;;;1.50;;
13345;SDS011;6742;48.036;15.780;2023-07-20T10:36:28;3.35;;;1.70;;
13345;SDS011;6742;48.036;15.780;2023-07-20T10:38:55;2.50;;;1.40;;
13345;SDS011;6742;48.036;15.780;2023-07-20T10:41:27;3.42;;;1.58;;
13345;SDS011;6742;48.036;15.780;2023-07-20T10:43:58;3.75;;;1.48;;
13345;SDS011;6742;48.036;15.780;2023-07-20T10:46:33;2.17;;;1.40;;
13345;SDS011;6742;48.036;15.780;2023-07-20T10:49:08;3.47;;;1.60;;
13345;SDS011;6742;48.036;15.780;2023-07-20T10:51:39;2.92;;;1.60;;
13345;SDS011;6742;48.036;15.780;2023-07-20T10:54:08;3.50;;;1.52;;
13345;SDS011;6742;48.036;15.780;2023-07-20T10:56:56;1.70;;;1.40;;
13345;SDS011;6742;48.036;15.780;2023-07-20T10:59:36;3.60;;;1.58;;
13345;SDS011;6742;48.036;15.780;2023-07-20T11:02:05;3.38;;;1.65;;
13345;SDS011;6742;48.036;15.780;2023-07-20T11:04:39;1.58;;;1.42;;
13345;SDS011;6742;48.036;15.780;2023-07-20T11:07:08;3.85;;;1.38;;
13345;SDS011;6742;48.036;15.780;2023-07-20T11:09:36;2.80;;;1.10;;
13345;SDS011;6742;48.036;15.780;2023-07-20T11:12:09;3.50;;;1.45;;
13345;SDS011;6742;48.036;15.780;2023-07-20T11:14:39;2.80;;;1.60;;
13345;SDS011;6742;48.036;15.780;2023-07-20T11:17:10;2.13;;;1.50;;
13345;SDS011;6742;48.036;15.780;2023-07-20T11:19:38;3.65;;;1.58;;
13345;SDS011;6742;48.036;15.780;2023-07-20T11:22:06;2.85;;;1.50;;
13345;SDS011;6742;48.036;15.780;2023-07-20T11:24:37;4.43;;;1.55;;
13345;SDS011;6742;48.036;15.780;2023-07-20T11:27:05;2.33;;;1.40;;
13345;SDS011;6742;48.036;15.780;2023-07-20T11:29:32;3.35;;;1.70;;
13345;SDS011;6742;48.036;15.780;2023-07-20T11:32:01;2.90;;;1.73;;
13345;SDS011;6742;48.036;15.780;2023-07-20T11:34:29;4.65;;;1.63;;
13345;SDS011;6742;48.036;15.780;2023-07-20T11:36:57;2.65;;;1.40;;
13345;SDS011;6742;48.036;15.780;2023-07-20T11:39:24;4.15;;;1.60;;
13345;SDS011;6742;48.036;15.780;2023-07-20T11:41:53;1.73;;;1.30;;
13345;SDS011;6742;48.036;15.780;2023-07-20T11:44:21;2.53;;;1.40;;
13345;SDS011;6742;48.036;15.780;2023-07-20T11:46:59;4.18;;;1.55;;
13345;SDS011;6742;48.036;15.780;2023-07-20T11:49:28;2.95;;;1.40;;
13345;SDS011;6742;48.036;15.780;2023-07-20T11:51:55;1.85;;;1.42;;
13345;SDS011;6742;48.036;15.780;2023-07-20T11:54:23;2.35;;;1.65;;
13345;SDS011;6742;48.036;15.780;2023-07-20T11:56:54;1.98;;;1.42;;
13345;SDS011;6742;48.036;15.780;2023-07-20T11:59:21;3.70;;;1.38;;
13345;SDS011;6742;48.036;15.780;2023-07-20T12:01:48;3.53;;;1.50;;
13345;SDS011;6742;48.036;15.780;2023-07-20T12:04:15;3.05;;;1.48;;
13345;SDS011;6742;48.036;15.780;2023-07-20T12:06:43;3.33;;;1.67;;
13345;SDS011;6742;48.036;15.780;2023-07-20T12:09:14;2.40;;;1.42;;
13345;SDS011;6742;48.036;15.780;2023-07-20T12:11:42;3.40;;;1.55;;
13345;SDS011;6742;48.036;15.780;2023-07-20T12:14:12;2.63;;;1.35;;
13345;SDS011;6742;48.036;15.780;2023-07-20T12:16:39;2.72;;;1.48;;
13345;SDS011;6742;48.036;15.780;2023-07-20T12:19:06;5.25;;;1.58;;
13345;SDS011;6742;48.036;15.780;2023-07-20T12:21:34;2.25;;;1.38;;
13345;SDS011;6742;48.036;15.780;2023-07-20T12:24:02;1.85;;;1.33;;
13345;SDS011;6742;48.036;15.780;2023-07-20T12:26:30;1.83;;;1.60;;
13345;SDS011;6742;48.036;15.780;2023-07-20T12:28:58;2.35;;;1.40;;
13345;SDS011;6742;48.036;15.780;2023-07-20T12:31:26;1.90;;;1.40;;
13345;SDS011;6742;48.036;15.780;2023-07-20T12:33:56;2.00;;;1.30;;
13345;SDS011;6742;48.036;15.780;2023-07-20T12:36:24;2.70;;;1.50;;
13345;SDS011;6742;48.036;15.780;2023-07-20T12:38:51;2.28;;;1.33;;
13345;SDS011;6742;48.036;15.780;2023-07-20T12:41:18;2.63;;;1.45;;
13345;SDS011;6742;48.036;15.780;2023-07-20T12:43:45;1.65;;;1.33;;
13345;SDS011;6742;48.036;15.780;2023-07-20T12:46:12;2.92;;;1.70;;
13345;SDS011;6742;48.036;15.780;2023-07-20T12:48:41;2.05;;;1.48;;
13345;SDS011;6742;48.036;15.780;2023-07-20T12:51:08;4.38;;;1.50;;
13345;SDS011;6742;48.036;15.780;2023-07-20T12:53:37;1.92;;;1.42;;
13345;SDS011;6742;48.036;15.780;2023-07-20T12:56:04;3.13;;;1.52;;
13345;SDS011;6742;48.036;15.780;2023-07-20T12:58:31;2.10;;;1.60;;
13345;SDS011;6742;48.036;15.780;2023-07-20T13:00:58;3.17;;;1.42;;
13345;SDS011;6742;48.036;15.780;2023-07-20T13:03:25;4.30;;;1.77;;
13345;SDS011;6742;48.036;15.780;2023-07-20T13:05:54;4.00;;;1.65;;
13345;SDS011;6742;48.036;15.780;2023-07-20T13:08:21;3.55;;;1.70;;
13345;SDS011;6742;48.036;15.780;2023-07-20T13:10:50;1.67;;;1.35;;
13345;SDS011;6742;48.036;15.780;2023-07-20T13:13:17;3.10;;;1.63;;
13345;SDS011;6742;48.036;15.780;2023-07-20T13:15:45;2.80;;;1.60;;
13345;SDS011;6742;48.036;15.780;2023-07-20T13:18:13;1.90;;;1.48;;
13345;SDS011;6742;48.036;15.780;2023-07-20T13:20:40;3.38;;;1.45;;
13345;SDS011;6742;48.036;15.780;2023-07-20T13:23:08;3.60;;;1.77;;
13345;SDS011;6742;48.036;15.780;2023-07-20T13:25:35;4.53;;;1.67;;
13345;SDS011;6742;48.036;15.780;2023-07-20T13:28:02;1.92;;;1.48;;
13345;SDS011;6742;48.036;15.780;2023-07-20T13:30:29;5.18;;;1.60;;
13345;SDS011;6742;48.036;15.780;2023-07-20T13:32:56;2.83;;;1.60;;
13345;SDS011;6742;48.036;15.780;2023-07-20T13:35:23;3.78;;;1.42;;
13345;SDS011;6742;48.036;15.780;2023-07-20T13:37:50;4.85;;;1.73;;
13345;SDS011;6742;48.036;15.780;2023-07-20T13:40:19;3.08;;;1.63;;
13345;SDS011;6742;48.036;15.780;2023-07-20T13:42:47;3.15;;;1.60;;
13345;SDS011;6742;48.036;15.780;2023-07-20T13:45:14;3.55;;;1.75;;
13345;SDS011;6742;48.036;15.780;2023-07-20T13:47:41;3.17;;;1.70;;
13345;SDS011;6742;48.036;15.780;2023-07-20T13:50:08;1.65;;;1.40;;
13345;SDS011;6742;48.036;15.780;2023-07-20T13:52:36;2.03;;;1.80;;
13345;SDS011;6742;48.036;15.780;2023-07-20T13:55:03;5.28;;;1.58;;
13345;SDS011;6742;48.036;15.780;2023-07-20T13:57:32;1.83;;;1.60;;
13345;SDS011;6742;48.036;15.780;2023-07-20T13:59:59;2.53;;;1.58;;
13345;SDS011;6742;48.036;15.780;2023-07-20T14:02:27;1.90;;;1.27;;
13345;SDS011;6742;48.036;15.780;2023-07-20T14:04:54;1.98;;;1.50;;
13345;SDS011;6742;48.036;15.780;2023-07-20T14:07:21;2.10;;;1.48;;
13345;SDS011;6742;48.036;15.780;2023-07-20T14:09:48;2.45;;;1.25;;
13345;SDS011;6742;48.036;15.780;2023-07-20T14:12:15;2.25;;;1.40;;
13345;SDS011;6742;48.036;15.780;2023-07-20T14:14:44;2.08;;;1.60;;
13345;SDS011;6742;48.036;15.780;2023-07-20T14:17:11;2.05;;;1.70;;
13345;SDS011;6742;48.036;15.780;2023-07-20T14:19:38;4.32;;;1.70;;
13345;SDS011;6742;48.036;15.780;2023-07-20T14:22:05;2.63;;;1.48;;
13345;SDS011;6742;48.036;15.780;2023-07-20T14:24:32;3.30;;;1.65;;
13345;SDS011;6742;48.036;15.780;2023-07-20T14:26:59;2.05;;;1.50;;
13345;SDS011;6742;48.036;15.780;2023-07-20T14:29:27;2.38;;;1.65;;
13345;SDS011;6742;48.036;15.780;2023-07-20T14:31:57;2.10;;;1.45;;
13345;SDS011;6742;48.036;15.780;2023-07-20T14:34:24;2.95;;;1.60;;
13345;SDS011;6742;48.036;15.780;2023-07-20T14:36:50;2.05;;;1.70;;
13345;SDS011;6742;48.036;15.780;2023-07-20T14:39:17;1.83;;;1.58;;
13345;SDS011;6742;48.036;15.780;2023-07-20T14:41:45;3.40;;;1.60;;
13345;SDS011;6742;48.036;15.780;2023-07-20T14:44:12;1.70;;;1.60;;
13345;SDS011;6742;48.036;15.780;2023-07-20T14:46:39;2.33;;;1.52;;
13345;SDS011;6742;48.036;15.780;2023-07-20T14:49:07;1.75;;;1.55;;
13345;SDS011;6742;48.036;15.780;2023-07-20T14:51:35;1.95;;;1.52;;
13345;SDS011;6742;48.036;15.780;2023-07-20T14:54:08;3.28;;;1.88;;
13345;SDS011;6742;48.036;15.780;2023-07-20T14:56:35;2.72;;;1.90;;
13345;SDS011;6742;48.036;15.780;2023-07-20T14:59:03;3.20;;;1.50;;